sensor_id;sensor_type;location;lat;lon;timestamp;pressure;altitude;pressure_sealevel;temperature;humidity
62926;BME280;55732;52.248;-0.844;2023-05-11T00:01:04;100525.31;;;11.45;81.96
62926;BME280;55732;52.248;-0.844;2023-05-11T00:03:30;100525.17;;;11.41;81.77
62926;BME280;55732;52.248;-0.844;2023-05-11T00:05:55;100526.78;;;11.34;81.61
62926;BME280;55732;52.248;-0.844;2023-05-11T00:08:20;100528.40;;;11.28;81.87
62926;BME280;55732;52.248;-0.844;2023-05-11T00:10:47;100528.58;;;11.26;82.03
62926;BME280;55732;52.248;-0.844;2023-05-11T00:13:12;100524.21;;;11.19;82.04
62926;BME280;55732;52.248;-0.844;2023-05-11T00:15:38;100526.17;;;11.16;82.27
62926;BME280;55732;52.248;-0.844;2023-05-11T00:18:03;100528.81;;;11.17;82.26
62926;BME280;55732;52.248;-0.844;2023-05-11T00:20:28;100534.27;;;11.15;82.36
62926;BME280;55732;52.248;-0.844;2023-05-11T00:22:54;100531.64;;;11.14;82.70
62926;BME280;55732;52.248;-0.844;2023-05-11T00:25:19;100526.71;;;11.12;82.57
62926;BME280;55732;52.248;-0.844;2023-05-11T00:27:45;100529.18;;;11.09;82.62
62926;BME280;55732;52.248;-0.844;2023-05-11T00:30:11;100530.08;;;11.08;82.90
62926;BME280;55732;52.248;-0.844;2023-05-11T00:32:38;100532.73;;;11.06;82.88
62926;BME280;55732;52.248;-0.844;2023-05-11T00:35:04;100523.93;;;11.05;82.89
62926;BME280;55732;52.248;-0.844;2023-05-11T00:37:30;100524.64;;;11.03;82.87
62926;BME280;55732;52.248;-0.844;2023-05-11T00:39:55;100520.58;;;11.03;83.04
62926;BME280;55732;52.248;-0.844;2023-05-11T00:42:20;100522.70;;;11.02;82.96
62926;BME280;55732;52.248;-0.844;2023-05-11T00:44:46;100517.59;;;11.00;82.98
62926;BME280;55732;52.248;-0.844;2023-05-11T00:47:11;100523.58;;;11.00;82.99
62926;BME280;55732;52.248;-0.844;2023-05-11T00:49:37;100523.94;;;11.00;83.09
62926;BME280;55732;52.248;-0.844;2023-05-11T00:52:04;100522.70;;;10.99;83.19
62926;BME280;55732;52.248;-0.844;2023-05-11T00:54:30;100522.35;;;11.00;83.08
62926;BME280;55732;52.248;-0.844;2023-05-11T00:56:55;100525.88;;;10.99;83.10
62926;BME280;55732;52.248;-0.844;2023-05-11T00:59:22;100528.34;;;10.99;83.07
62926;BME280;55732;52.248;-0.844;2023-05-11T01:01:47;100529.58;;;10.98;83.21
62926;BME280;55732;52.248;-0.844;2023-05-11T01:04:13;100530.10;;;10.99;83.21
62926;BME280;55732;52.248;-0.844;2023-05-11T01:07:02;100530.63;;;11.01;83.36
62926;BME280;55732;52.248;-0.844;2023-05-11T01:09:39;100534.50;;;11.03;83.36
62926;BME280;55732;52.248;-0.844;2023-05-11T01:12:18;100531.86;;;11.06;83.24
62926;BME280;55732;52.248;-0.844;2023-05-11T01:17:33;100531.64;;;11.13;83.47
62926;BME280;55732;52.248;-0.844;2023-05-11T01:20:05;100530.58;;;11.17;83.55
62926;BME280;55732;52.248;-0.844;2023-05-11T01:31:18;100532.16;;;11.16;83.35
62926;BME280;55732;52.248;-0.844;2023-05-11T01:33:50;100535.34;;;11.14;83.52
62926;BME280;55732;52.248;-0.844;2023-05-11T01:36:18;100536.92;;;11.15;83.66
62926;BME280;55732;52.248;-0.844;2023-05-11T01:38:46;100533.58;;;11.16;83.62
62926;BME280;55732;52.248;-0.844;2023-05-11T01:41:18;100535.68;;;11.18;83.51
62926;BME280;55732;52.248;-0.844;2023-05-11T01:43:54;100538.15;;;11.18;83.53
62926;BME280;55732;52.248;-0.844;2023-05-11T01:46:24;100534.63;;;11.14;83.36
62926;BME280;55732;52.248;-0.844;2023-05-11T01:48:52;100537.83;;;11.09;83.26
62926;BME280;55732;52.248;-0.844;2023-05-11T01:51:19;100539.27;;;11.04;83.37
62926;BME280;55732;52.248;-0.844;2023-05-11T01:53:45;100547.19;;;11.02;83.39
62926;BME280;55732;52.248;-0.844;2023-05-11T01:56:13;100542.10;;;10.96;83.50
62926;BME280;55732;52.248;-0.844;2023-05-11T01:58:40;100543.69;;;10.94;83.32
62926;BME280;55732;52.248;-0.844;2023-05-11T02:01:07;100554.27;;;10.97;83.35
62926;BME280;55732;52.248;-0.844;2023-05-11T02:03:35;100552.69;;;10.95;83.67
62926;BME280;55732;52.248;-0.844;2023-05-11T02:06:03;100554.98;;;10.95;83.61
62926;BME280;55732;52.248;-0.844;2023-05-11T02:08:30;100556.39;;;10.93;83.55
62926;BME280;55732;52.248;-0.844;2023-05-11T02:10:57;100556.39;;;10.89;83.43
62926;BME280;55732;52.248;-0.844;2023-05-11T02:13:25;100558.00;;;10.85;83.56
62926;BME280;55732;52.248;-0.844;2023-05-11T02:15:55;100558.89;;;10.83;83.83
62926;BME280;55732;52.248;-0.844;2023-05-11T02:18:21;100559.23;;;10.80;83.69
62926;BME280;55732;52.248;-0.844;2023-05-11T02:20:47;100562.23;;;10.78;83.65
62926;BME280;55732;52.248;-0.844;2023-05-11T02:23:14;100563.46;;;10.77;83.78
62926;BME280;55732;52.248;-0.844;2023-05-11T02:25:41;100557.86;;;10.69;83.46
62926;BME280;55732;52.248;-0.844;2023-05-11T02:28:07;100561.20;;;10.62;83.53
62926;BME280;55732;52.248;-0.844;2023-05-11T02:30:38;100573.37;;;10.60;83.46
62926;BME280;55732;52.248;-0.844;2023-05-11T02:33:07;100573.55;;;10.53;83.46
62926;BME280;55732;52.248;-0.844;2023-05-11T02:35:37;100577.80;;;10.48;83.73
62926;BME280;55732;52.248;-0.844;2023-05-11T02:38:05;100575.50;;;10.46;84.14
62926;BME280;55732;52.248;-0.844;2023-05-11T02:40:33;100579.02;;;10.46;84.09
62926;BME280;55732;52.248;-0.844;2023-05-11T02:43:09;100578.32;;;10.44;84.11
62926;BME280;55732;52.248;-0.844;2023-05-11T02:45:36;100578.66;;;10.42;84.18
62926;BME280;55732;52.248;-0.844;2023-05-11T02:48:08;100579.55;;;10.40;84.31
62926;BME280;55732;52.248;-0.844;2023-05-11T02:50:38;100578.14;;;10.40;84.26
62926;BME280;55732;52.248;-0.844;2023-05-11T02:53:06;100580.78;;;10.38;84.26
62926;BME280;55732;52.248;-0.844;2023-05-11T02:55:34;100578.31;;;10.39;84.31
62926;BME280;55732;52.248;-0.844;2023-05-11T02:57:59;100579.55;;;10.40;84.44
62926;BME280;55732;52.248;-0.844;2023-05-11T03:00:25;100580.24;;;10.39;84.36
62926;BME280;55732;52.248;-0.844;2023-05-11T03:02:50;100581.85;;;10.37;84.30
62926;BME280;55732;52.248;-0.844;2023-05-11T03:05:16;100581.50;;;10.35;84.44
62926;BME280;55732;52.248;-0.844;2023-05-11T03:07:42;100580.98;;;10.36;84.89
62926;BME280;55732;52.248;-0.844;2023-05-11T03:10:08;100584.14;;;10.37;84.86
62926;BME280;55732;52.248;-0.844;2023-05-11T03:12:34;100585.90;;;10.38;84.82
62926;BME280;55732;52.248;-0.844;2023-05-11T03:15:01;100585.18;;;10.39;85.08
62926;BME280;55732;52.248;-0.844;2023-05-11T03:17:28;100587.98;;;10.40;85.00
62926;BME280;55732;52.248;-0.844;2023-05-11T03:19:55;100591.16;;;10.41;84.92
62926;BME280;55732;52.248;-0.844;2023-05-11T03:22:22;100588.00;;;10.38;84.78
62926;BME280;55732;52.248;-0.844;2023-05-11T03:24:48;100588.20;;;10.37;84.86
62926;BME280;55732;52.248;-0.844;2023-05-11T03:27:15;100592.05;;;10.38;85.11
62926;BME280;55732;52.248;-0.844;2023-05-11T03:29:42;100592.04;;;10.40;85.29
62926;BME280;55732;52.248;-0.844;2023-05-11T03:32:10;100595.21;;;10.41;85.14
62926;BME280;55732;52.248;-0.844;2023-05-11T03:34:35;100595.91;;;10.42;85.04
62926;BME280;55732;52.248;-0.844;2023-05-11T03:37:03;100594.86;;;10.40;84.94
62926;BME280;55732;52.248;-0.844;2023-05-11T03:39:32;100592.39;;;10.39;85.13
62926;BME280;55732;52.248;-0.844;2023-05-11T03:41:57;100590.63;;;10.40;85.26
62926;BME280;55732;52.248;-0.844;2023-05-11T03:44:24;100589.06;;;10.39;85.11
62926;BME280;55732;52.248;-0.844;2023-05-11T03:46:51;100586.95;;;10.36;85.10
62926;BME280;55732;52.248;-0.844;2023-05-11T03:49:18;100583.79;;;10.35;85.19
62926;BME280;55732;52.248;-0.844;2023-05-11T03:51:43;100582.20;;;10.35;85.29
62926;BME280;55732;52.248;-0.844;2023-05-11T03:54:09;100577.63;;;10.35;85.04
62926;BME280;55732;52.248;-0.844;2023-05-11T03:56:36;100581.32;;;10.36;85.18
62926;BME280;55732;52.248;-0.844;2023-05-11T03:59:02;100580.10;;;10.36;85.35
62926;BME280;55732;52.248;-0.844;2023-05-11T04:01:29;100578.34;;;10.36;85.14
62926;BME280;55732;52.248;-0.844;2023-05-11T04:03:55;100578.67;;;10.35;85.30
62926;BME280;55732;52.248;-0.844;2023-05-11T04:06:21;100579.56;;;10.35;85.13
62926;BME280;55732;52.248;-0.844;2023-05-11T04:08:46;100578.33;;;10.34;85.19
62926;BME280;55732;52.248;-0.844;2023-05-11T04:11:12;100583.08;;;10.33;85.23
62926;BME280;55732;52.248;-0.844;2023-05-11T04:13:38;100585.19;;;10.33;85.19
62926;BME280;55732;52.248;-0.844;2023-05-11T04:16:04;100585.19;;;10.32;85.10
62926;BME280;55732;52.248;-0.844;2023-05-11T04:18:29;100583.78;;;10.31;85.15
62926;BME280;55732;52.248;-0.844;2023-05-11T04:20:55;100585.02;;;10.32;85.39
62926;BME280;55732;52.248;-0.844;2023-05-11T04:23:20;100586.06;;;10.31;85.33
62926;BME280;55732;52.248;-0.844;2023-05-11T04:25:46;100585.89;;;10.31;85.47
62926;BME280;55732;52.248;-0.844;2023-05-11T04:28:11;100587.30;;;10.32;85.63
62926;BME280;55732;52.248;-0.844;2023-05-11T04:30:36;100585.89;;;10.34;85.46
62926;BME280;55732;52.248;-0.844;2023-05-11T04:33:02;100583.79;;;10.36;85.67
62926;BME280;55732;52.248;-0.844;2023-05-11T04:35:27;100582.02;;;10.37;85.63
62926;BME280;55732;52.248;-0.844;2023-05-11T04:37:53;100587.29;;;10.40;85.54
62926;BME280;55732;52.248;-0.844;2023-05-11T04:40:18;100581.84;;;10.41;85.60
62926;BME280;55732;52.248;-0.844;2023-05-11T04:42:44;100581.66;;;10.42;85.73
62926;BME280;55732;52.248;-0.844;2023-05-11T04:45:10;100584.48;;;10.45;85.72
62926;BME280;55732;52.248;-0.844;2023-05-11T04:47:35;100587.30;;;10.48;85.76
62926;BME280;55732;52.248;-0.844;2023-05-11T04:50:01;100586.07;;;10.50;85.58
62926;BME280;55732;52.248;-0.844;2023-05-11T04:52:26;100589.04;;;10.52;85.45
62926;BME280;55732;52.248;-0.844;2023-05-11T04:54:51;100593.63;;;10.54;85.35
62926;BME280;55732;52.248;-0.844;2023-05-11T04:57:17;100594.68;;;10.56;85.30
62926;BME280;55732;52.248;-0.844;2023-05-11T04:59:43;100596.44;;;10.59;85.43
62926;BME280;55732;52.248;-0.844;2023-05-11T05:02:08;100594.51;;;10.58;85.29
62926;BME280;55732;52.248;-0.844;2023-05-11T05:04:34;100598.03;;;10.58;85.12
62926;BME280;55732;52.248;-0.844;2023-05-11T05:06:59;100591.52;;;10.59;85.39
62926;BME280;55732;52.248;-0.844;2023-05-11T05:09:24;100597.31;;;10.62;85.42
62926;BME280;55732;52.248;-0.844;2023-05-11T05:11:50;100599.95;;;10.65;85.52
62926;BME280;55732;52.248;-0.844;2023-05-11T05:14:15;100602.41;;;10.68;85.42
62926;BME280;55732;52.248;-0.844;2023-05-11T05:16:40;100604.00;;;10.72;85.41
62926;BME280;55732;52.248;-0.844;2023-05-11T05:19:06;100602.03;;;10.76;85.22
62926;BME280;55732;52.248;-0.844;2023-05-11T05:21:31;100604.85;;;10.81;85.08
62926;BME280;55732;52.248;-0.844;2023-05-11T05:23:57;100605.55;;;10.86;85.00
62926;BME280;55732;52.248;-0.844;2023-05-11T05:26:22;100611.00;;;10.93;84.99
62926;BME280;55732;52.248;-0.844;2023-05-11T05:28:48;100613.27;;;10.97;84.78
62926;BME280;55732;52.248;-0.844;2023-05-11T05:31:14;100614.50;;;11.02;84.56
62926;BME280;55732;52.248;-0.844;2023-05-11T05:33:39;100620.48;;;11.07;84.52
62926;BME280;55732;52.248;-0.844;2023-05-11T05:36:04;100617.63;;;11.13;84.50
62926;BME280;55732;52.248;-0.844;2023-05-11T05:38:30;100621.14;;;11.20;84.15
62926;BME280;55732;52.248;-0.844;2023-05-11T05:40:55;100618.83;;;11.28;83.99
62926;BME280;55732;52.248;-0.844;2023-05-11T05:43:21;100623.73;;;11.35;83.80
62926;BME280;55732;52.248;-0.844;2023-05-11T05:45:46;100621.05;;;11.45;83.78
62926;BME280;55732;52.248;-0.844;2023-05-11T05:48:11;100619.05;;;11.57;83.46
62926;BME280;55732;52.248;-0.844;2023-05-11T05:50:37;100626.22;;;11.73;82.95
62926;BME280;55732;52.248;-0.844;2023-05-11T05:53:02;100622.96;;;11.91;82.69
62926;BME280;55732;52.248;-0.844;2023-05-11T05:55:27;100619.31;;;12.11;82.25
62926;BME280;55732;52.248;-0.844;2023-05-11T05:57:53;100620.32;;;12.16;81.89
62926;BME280;55732;52.248;-0.844;2023-05-11T06:00:18;100622.77;;;12.22;81.60
62926;BME280;55732;52.248;-0.844;2023-05-11T06:02:44;100624.80;;;12.29;81.36
62926;BME280;55732;52.248;-0.844;2023-05-11T06:05:09;100623.52;;;12.39;81.22
62926;BME280;55732;52.248;-0.844;2023-05-11T06:07:34;100622.55;;;12.48;80.43
62926;BME280;55732;52.248;-0.844;2023-05-11T06:10:01;100627.59;;;12.57;80.13
62926;BME280;55732;52.248;-0.844;2023-05-11T06:12:26;100631.23;;;12.64;79.73
62926;BME280;55732;52.248;-0.844;2023-05-11T06:14:51;100631.00;;;12.71;79.55
62926;BME280;55732;52.248;-0.844;2023-05-11T06:17:17;100630.89;;;12.82;79.23
62926;BME280;55732;52.248;-0.844;2023-05-11T06:19:42;100636.62;;;12.93;78.94
62926;BME280;55732;52.248;-0.844;2023-05-11T06:22:07;100632.98;;;13.02;78.64
62926;BME280;55732;52.248;-0.844;2023-05-11T06:24:33;100637.45;;;13.17;78.80
62926;BME280;55732;52.248;-0.844;2023-05-11T06:26:58;100638.71;;;13.31;78.13
62926;BME280;55732;52.248;-0.844;2023-05-11T06:29:24;100641.23;;;13.43;77.77
62926;BME280;55732;52.248;-0.844;2023-05-11T06:31:50;100639.77;;;13.61;77.30
62926;BME280;55732;52.248;-0.844;2023-05-11T06:34:20;100641.66;;;13.79;76.85
62926;BME280;55732;52.248;-0.844;2023-05-11T06:36:46;100639.09;;;13.97;76.73
62926;BME280;55732;52.248;-0.844;2023-05-11T06:39:12;100641.02;;;14.22;76.04
62926;BME280;55732;52.248;-0.844;2023-05-11T06:41:37;100641.16;;;14.61;75.97
62926;BME280;55732;52.248;-0.844;2023-05-11T06:44:03;100641.56;;;14.88;75.42
62926;BME280;55732;52.248;-0.844;2023-05-11T06:46:30;100645.25;;;15.09;74.31
62926;BME280;55732;52.248;-0.844;2023-05-11T06:48:55;100643.73;;;15.33;73.46
62926;BME280;55732;52.248;-0.844;2023-05-11T06:51:20;100646.16;;;15.44;72.92
62926;BME280;55732;52.248;-0.844;2023-05-11T06:53:47;100649.08;;;15.59;72.61
62926;BME280;55732;52.248;-0.844;2023-05-11T06:56:12;100649.02;;;15.71;71.93
62926;BME280;55732;52.248;-0.844;2023-05-11T06:58:38;100655.13;;;15.84;71.59
62926;BME280;55732;52.248;-0.844;2023-05-11T07:01:03;100651.80;;;16.05;71.17
62926;BME280;55732;52.248;-0.844;2023-05-11T07:03:35;100649.42;;;16.24;70.60
62926;BME280;55732;52.248;-0.844;2023-05-11T07:06:01;100647.23;;;16.27;69.74
62926;BME280;55732;52.248;-0.844;2023-05-11T07:08:27;100648.49;;;16.34;69.63
62926;BME280;55732;52.248;-0.844;2023-05-11T07:10:52;100647.55;;;16.42;69.17
62926;BME280;55732;52.248;-0.844;2023-05-11T07:13:18;100651.64;;;16.65;68.55
62926;BME280;55732;52.248;-0.844;2023-05-11T07:15:43;100652.16;;;16.87;67.63
62926;BME280;55732;52.248;-0.844;2023-05-11T07:18:08;100654.14;;;17.13;67.03
62926;BME280;55732;52.248;-0.844;2023-05-11T07:20:34;100651.70;;;17.30;66.79
62926;BME280;55732;52.248;-0.844;2023-05-11T07:23:01;100652.88;;;17.33;66.15
62926;BME280;55732;52.248;-0.844;2023-05-11T07:25:28;100652.29;;;17.54;65.90
62926;BME280;55732;52.248;-0.844;2023-05-11T07:27:53;100650.34;;;18.36;64.45
62926;BME280;55732;52.248;-0.844;2023-05-11T07:30:19;100655.12;;;18.75;63.82
62926;BME280;55732;52.248;-0.844;2023-05-11T07:32:44;100658.42;;;18.84;63.03
62926;BME280;55732;52.248;-0.844;2023-05-11T07:35:09;100657.54;;;19.19;62.22
62926;BME280;55732;52.248;-0.844;2023-05-11T07:37:35;100656.61;;;19.97;60.98
62926;BME280;55732;52.248;-0.844;2023-05-11T07:40:00;100655.62;;;21.01;58.66
62926;BME280;55732;52.248;-0.844;2023-05-11T07:42:26;100651.92;;;21.79;56.99
62926;BME280;55732;52.248;-0.844;2023-05-11T07:44:51;100653.81;;;22.77;55.05
62926;BME280;55732;52.248;-0.844;2023-05-11T07:47:17;100658.20;;;23.69;52.82
62926;BME280;55732;52.248;-0.844;2023-05-11T07:49:45;100656.66;;;24.00;51.74
62926;BME280;55732;52.248;-0.844;2023-05-11T07:52:12;100657.34;;;23.95;51.03
62926;BME280;55732;52.248;-0.844;2023-05-11T07:54:37;100661.88;;;24.03;50.97
62926;BME280;55732;52.248;-0.844;2023-05-11T07:57:04;100664.58;;;24.54;48.78
62926;BME280;55732;52.248;-0.844;2023-05-11T07:59:31;100669.20;;;24.86;48.94
62926;BME280;55732;52.248;-0.844;2023-05-11T08:01:56;100669.38;;;24.83;48.45
62926;BME280;55732;52.248;-0.844;2023-05-11T08:04:22;100667.35;;;24.75;47.01
62926;BME280;55732;52.248;-0.844;2023-05-11T08:06:47;100669.95;;;25.33;47.06
62926;BME280;55732;52.248;-0.844;2023-05-11T08:09:14;100665.25;;;27.20;44.42
62926;BME280;55732;52.248;-0.844;2023-05-11T08:11:39;100666.87;;;28.07;43.09
62926;BME280;55732;52.248;-0.844;2023-05-11T08:14:05;100666.34;;;28.39;42.11
62926;BME280;55732;52.248;-0.844;2023-05-11T08:16:30;100674.59;;;27.47;42.87
62926;BME280;55732;52.248;-0.844;2023-05-11T08:18:55;100667.05;;;26.39;43.42
62926;BME280;55732;52.248;-0.844;2023-05-11T08:21:21;100673.64;;;25.38;44.95
62926;BME280;55732;52.248;-0.844;2023-05-11T08:23:47;100672.27;;;24.65;45.43
62926;BME280;55732;52.248;-0.844;2023-05-11T08:26:13;100669.92;;;24.24;46.03
62926;BME280;55732;52.248;-0.844;2023-05-11T08:28:38;100677.60;;;24.78;44.94
62926;BME280;55732;52.248;-0.844;2023-05-11T08:31:03;100677.48;;;25.55;44.17
62926;BME280;55732;52.248;-0.844;2023-05-11T08:33:30;100676.00;;;26.30;41.97
62926;BME280;55732;52.248;-0.844;2023-05-11T08:35:55;100678.61;;;27.95;40.83
62926;BME280;55732;52.248;-0.844;2023-05-11T08:38:21;100676.40;;;29.33;38.93
62926;BME280;55732;52.248;-0.844;2023-05-11T08:40:46;100673.55;;;30.39;37.12
62926;BME280;55732;52.248;-0.844;2023-05-11T08:43:14;100673.02;;;31.60;35.88
62926;BME280;55732;52.248;-0.844;2023-05-11T08:45:43;100670.35;;;33.92;32.85
62926;BME280;55732;52.248;-0.844;2023-05-11T08:48:12;100673.61;;;35.61;30.42
62926;BME280;55732;52.248;-0.844;2023-05-11T08:50:40;100674.61;;;35.92;30.02
62926;BME280;55732;52.248;-0.844;2023-05-11T08:53:05;100675.83;;;35.19;30.10
62926;BME280;55732;52.248;-0.844;2023-05-11T08:55:32;100672.11;;;34.75;30.06
62926;BME280;55732;52.248;-0.844;2023-05-11T08:57:59;100674.54;;;34.87;29.61
62926;BME280;55732;52.248;-0.844;2023-05-11T09:00:27;100674.38;;;34.58;29.43
62926;BME280;55732;52.248;-0.844;2023-05-11T09:02:54;100675.83;;;35.21;28.72
62926;BME280;55732;52.248;-0.844;2023-05-11T09:05:20;100671.83;;;34.95;28.60
62926;BME280;55732;52.248;-0.844;2023-05-11T09:07:45;100670.25;;;34.77;28.62
62926;BME280;55732;52.248;-0.844;2023-05-11T09:10:12;100671.48;;;34.41;28.51
62926;BME280;55732;52.248;-0.844;2023-05-11T09:12:37;100669.35;;;35.00;28.00
62926;BME280;55732;52.248;-0.844;2023-05-11T09:15:03;100668.59;;;33.72;29.00
62926;BME280;55732;52.248;-0.844;2023-05-11T09:17:29;100668.07;;;34.67;27.54
62926;BME280;55732;52.248;-0.844;2023-05-11T09:20:02;100668.56;;;33.72;28.32
62926;BME280;55732;52.248;-0.844;2023-05-11T09:22:32;100675.37;;;31.82;30.18
62926;BME280;55732;52.248;-0.844;2023-05-11T09:25:00;100678.45;;;30.05;32.13
62926;BME280;55732;52.248;-0.844;2023-05-11T09:27:26;100683.47;;;28.51;32.75
62926;BME280;55732;52.248;-0.844;2023-05-11T09:29:55;100679.36;;;27.09;34.21
62926;BME280;55732;52.248;-0.844;2023-05-11T09:32:20;100678.27;;;25.94;35.66
62926;BME280;55732;52.248;-0.844;2023-05-11T09:34:45;100684.27;;;24.93;36.75
62926;BME280;55732;52.248;-0.844;2023-05-11T09:37:16;100686.48;;;24.01;38.08
62926;BME280;55732;52.248;-0.844;2023-05-11T09:39:42;100691.16;;;23.27;39.10
62926;BME280;55732;52.248;-0.844;2023-05-11T09:42:11;100689.83;;;22.68;40.06
62926;BME280;55732;52.248;-0.844;2023-05-11T09:44:38;100689.20;;;22.30;41.19
62926;BME280;55732;52.248;-0.844;2023-05-11T09:47:14;100687.60;;;22.40;41.32
62926;BME280;55732;52.248;-0.844;2023-05-11T09:49:40;100689.13;;;22.61;41.51
62926;BME280;55732;52.248;-0.844;2023-05-11T09:52:09;100690.48;;;22.14;42.45
62926;BME280;55732;52.248;-0.844;2023-05-11T09:54:40;100691.25;;;21.74;42.84
62926;BME280;55732;52.248;-0.844;2023-05-11T09:57:21;100691.31;;;21.24;42.91
62926;BME280;55732;52.248;-0.844;2023-05-11T09:59:47;100688.28;;;20.77;43.70
62926;BME280;55732;52.248;-0.844;2023-05-11T10:02:31;100687.02;;;20.43;44.32
62926;BME280;55732;52.248;-0.844;2023-05-11T10:04:58;100690.55;;;20.21;44.86
62926;BME280;55732;52.248;-0.844;2023-05-11T10:07:29;100690.75;;;20.02;45.56
62926;BME280;55732;52.248;-0.844;2023-05-11T10:10:00;100689.13;;;19.98;46.31
62926;BME280;55732;52.248;-0.844;2023-05-11T10:12:26;100689.17;;;20.33;45.48
62926;BME280;55732;52.248;-0.844;2023-05-11T10:15:03;100687.09;;;20.94;44.54
62926;BME280;55732;52.248;-0.844;2023-05-11T10:17:30;100686.21;;;21.05;44.56
62926;BME280;55732;52.248;-0.844;2023-05-11T10:19:57;100681.51;;;22.17;42.98
62926;BME280;55732;52.248;-0.844;2023-05-11T10:22:28;100681.60;;;22.34;42.32
62926;BME280;55732;52.248;-0.844;2023-05-11T10:24:55;100680.59;;;22.37;42.35
62926;BME280;55732;52.248;-0.844;2023-05-11T10:27:22;100679.42;;;22.57;41.80
62926;BME280;55732;52.248;-0.844;2023-05-11T10:29:48;100675.00;;;22.67;42.03
62926;BME280;55732;52.248;-0.844;2023-05-11T10:32:17;100671.73;;;22.53;42.44
62926;BME280;55732;52.248;-0.844;2023-05-11T10:34:44;100670.41;;;22.43;42.65
62926;BME280;55732;52.248;-0.844;2023-05-11T10:37:11;100672.70;;;22.44;42.77
62926;BME280;55732;52.248;-0.844;2023-05-11T10:39:38;100676.82;;;22.30;43.24
62926;BME280;55732;52.248;-0.844;2023-05-11T10:59:21;100681.54;;;21.47;43.26
62926;BME280;55732;52.248;-0.844;2023-05-11T11:01:53;100681.08;;;21.33;43.30
62926;BME280;55732;52.248;-0.844;2023-05-11T11:04:23;100679.56;;;21.10;43.67
62926;BME280;55732;52.248;-0.844;2023-05-11T11:07:04;100679.55;;;20.85;44.39
62926;BME280;55732;52.248;-0.844;2023-05-11T11:09:49;100681.40;;;20.71;44.26
62926;BME280;55732;52.248;-0.844;2023-05-11T11:12:17;100676.41;;;20.66;44.83
62926;BME280;55732;52.248;-0.844;2023-05-11T11:15:03;100674.82;;;20.66;44.83
62926;BME280;55732;52.248;-0.844;2023-05-11T11:17:34;100672.89;;;20.65;45.36
62926;BME280;55732;52.248;-0.844;2023-05-11T11:20:01;100674.33;;;20.52;45.35
62926;BME280;55732;52.248;-0.844;2023-05-11T11:25:04;100668.35;;;20.21;45.78
62926;BME280;55732;52.248;-0.844;2023-05-11T11:30:21;100657.00;;;20.14;47.13
62926;BME280;55732;52.248;-0.844;2023-05-11T11:32:48;100663.39;;;20.11;46.87
62926;BME280;55732;52.248;-0.844;2023-05-11T11:38:18;100654.36;;;20.05;47.33
62926;BME280;55732;52.248;-0.844;2023-05-11T11:40:46;100652.75;;;20.00;46.62
62926;BME280;55732;52.248;-0.844;2023-05-11T11:43:16;100654.50;;;19.97;46.60
62926;BME280;55732;52.248;-0.844;2023-05-11T11:45:57;100654.81;;;20.16;46.00
62926;BME280;55732;52.248;-0.844;2023-05-11T11:48:33;100654.08;;;20.35;45.67
62926;BME280;55732;52.248;-0.844;2023-05-11T11:56:02;100653.29;;;20.18;45.71
62926;BME280;55732;52.248;-0.844;2023-05-11T12:01:17;100658.90;;;19.61;46.76
62926;BME280;55732;52.248;-0.844;2023-05-11T12:03:45;100656.77;;;19.35;47.05
62926;BME280;55732;52.248;-0.844;2023-05-11T12:06:12;100658.75;;;19.15;47.24
62926;BME280;55732;52.248;-0.844;2023-05-11T12:08:39;100658.60;;;18.99;47.55
62926;BME280;55732;52.248;-0.844;2023-05-11T12:11:06;100657.30;;;18.86;47.74
62926;BME280;55732;52.248;-0.844;2023-05-11T12:13:33;100658.48;;;18.71;48.18
62926;BME280;55732;52.248;-0.844;2023-05-11T12:16:16;100662.71;;;18.62;48.90
62926;BME280;55732;52.248;-0.844;2023-05-11T12:18:54;100663.39;;;18.52;49.02
62926;BME280;55732;52.248;-0.844;2023-05-11T12:21:27;100661.94;;;18.36;49.00
62926;BME280;55732;52.248;-0.844;2023-05-11T12:23:58;100663.88;;;18.20;49.89
62926;BME280;55732;52.248;-0.844;2023-05-11T12:26:25;100660.41;;;18.05;50.80
62926;BME280;55732;52.248;-0.844;2023-05-11T12:29:05;100661.30;;;17.93;51.60
62926;BME280;55732;52.248;-0.844;2023-05-11T12:31:38;100663.25;;;17.82;51.68
62926;BME280;55732;52.248;-0.844;2023-05-11T12:34:04;100667.25;;;17.66;51.97
62926;BME280;55732;52.248;-0.844;2023-05-11T12:36:30;100667.13;;;17.51;53.05
62926;BME280;55732;52.248;-0.844;2023-05-11T12:38:56;100668.55;;;17.46;54.35
62926;BME280;55732;52.248;-0.844;2023-05-11T12:41:22;100667.32;;;17.45;55.07
62926;BME280;55732;52.248;-0.844;2023-05-11T12:43:49;100668.29;;;17.48;55.69
62926;BME280;55732;52.248;-0.844;2023-05-11T12:46:15;100667.73;;;17.55;56.36
62926;BME280;55732;52.248;-0.844;2023-05-11T12:48:41;100669.39;;;17.73;57.44
62926;BME280;55732;52.248;-0.844;2023-05-11T12:51:07;100669.84;;;17.88;57.62
62926;BME280;55732;52.248;-0.844;2023-05-11T12:53:34;100673.23;;;17.88;56.16
62926;BME280;55732;52.248;-0.844;2023-05-11T12:56:00;100674.30;;;17.81;56.42
62926;BME280;55732;52.248;-0.844;2023-05-11T12:58:37;100679.24;;;17.77;56.76
62926;BME280;55732;52.248;-0.844;2023-05-11T13:01:04;100679.05;;;17.71;57.46
62926;BME280;55732;52.248;-0.844;2023-05-11T13:03:32;100684.16;;;17.68;58.26
62926;BME280;55732;52.248;-0.844;2023-05-11T13:06:08;100680.63;;;17.59;58.42
62926;BME280;55732;52.248;-0.844;2023-05-11T13:08:39;100685.89;;;17.42;58.90
62926;BME280;55732;52.248;-0.844;2023-05-11T13:11:19;100683.24;;;17.29;59.32
62926;BME280;55732;52.248;-0.844;2023-05-11T13:13:49;100687.79;;;17.11;60.17
62926;BME280;55732;52.248;-0.844;2023-05-11T13:16:31;100688.16;;;16.91;60.55
62926;BME280;55732;52.248;-0.844;2023-05-11T13:21:23;100690.72;;;16.51;61.40
62926;BME280;55732;52.248;-0.844;2023-05-11T13:23:49;100706.28;;;16.32;62.31
62926;BME280;55732;52.248;-0.844;2023-05-11T13:26:21;100716.44;;;16.07;63.44
62926;BME280;55732;52.248;-0.844;2023-05-11T13:28:48;100725.16;;;15.71;64.45